createdAt,value
2023-05-05T00:00:30.255Z,80.93
2023-05-05T00:03:12.828Z,87.57
2023-05-05T00:05:40.679Z,72.45
2023-05-05T00:08:08.484Z,59.70
2023-05-05T00:10:36.783Z,59.45
2023-05-05T00:13:05.092Z,64.05
2023-05-05T00:15:33.100Z,64.70
2023-05-05T00:18:00.464Z,56.55
2023-05-05T00:20:28.213Z,53.78
2023-05-05T00:22:55.363Z,50.33
2023-05-05T00:25:22.943Z,67.03
2023-05-05T00:27:50.739Z,71.53
2023-05-05T00:30:18.620Z,69.38
2023-05-05T00:32:48.825Z,70.47
2023-05-05T00:35:17.979Z,67.72
2023-05-05T00:37:45.254Z,57.90
2023-05-05T00:40:13.416Z,54.15
2023-05-05T00:42:49.287Z,53.63
2023-05-05T00:45:18.453Z,48.55
2023-05-05T00:47:49.103Z,50.42
2023-05-05T00:50:24.626Z,44.58
2023-05-05T00:52:55.255Z,50.83
2023-05-05T00:55:23.861Z,54.45
2023-05-05T00:57:51.342Z,70.75
2023-05-05T01:00:19.100Z,64.40
2023-05-05T01:02:46.377Z,70.75
2023-05-05T01:05:16.522Z,79.32
2023-05-05T01:07:55.481Z,69.38
2023-05-05T01:10:38.608Z,77.40
2023-05-05T01:13:05.764Z,74.53
2023-05-05T01:15:48.742Z,85.72
2023-05-05T01:18:41.794Z,79.03
2023-05-05T01:21:17.168Z,75.00
2023-05-05T01:23:56.521Z,81.97
2023-05-05T01:26:42.920Z,82.40
2023-05-05T01:29:54.510Z,82.75
2023-05-05T01:32:31.906Z,83.07
2023-05-05T01:35:08.432Z,75.90
2023-05-05T01:37:53.410Z,73.05
2023-05-05T01:40:26.202Z,82.47
2023-05-05T01:42:55.942Z,79.30
2023-05-05T01:45:26.745Z,85.53
2023-05-05T01:48:00.279Z,82.22
2023-05-05T01:50:29.351Z,84.28
2023-05-05T01:55:31.178Z,77.95
2023-05-05T01:58:01.362Z,80.57
2023-05-05T02:00:29.371Z,75.95
2023-05-05T02:03:00.129Z,69.15
2023-05-05T02:05:28.613Z,68.28
2023-05-05T02:07:59.172Z,67.43
2023-05-05T02:10:27.872Z,63.58
2023-05-05T02:12:57.274Z,60.72
2023-05-05T02:15:27.335Z,51.25
2023-05-05T02:17:56.342Z,54.40
2023-05-05T02:20:25.005Z,58.88
2023-05-05T02:22:54.056Z,45.15
2023-05-05T02:25:23.885Z,52.58
2023-05-05T02:27:57.107Z,47.95
2023-05-05T02:30:25.597Z,44.80
2023-05-05T02:33:04.840Z,40.42
2023-05-05T02:35:39.224Z,52.60
2023-05-05T02:38:17.525Z,55.45
2023-05-05T02:40:50.022Z,54.05
2023-05-05T02:43:22.072Z,48.17
2023-05-05T02:45:49.541Z,48.05
2023-05-05T02:48:18.386Z,51.80
2023-05-05T02:50:45.623Z,56.38
2023-05-05T02:53:29.493Z,62.75
2023-05-05T02:56:08.182Z,63.25
2023-05-05T02:58:51.172Z,54.17
2023-05-05T03:02:04.492Z,51.88
2023-05-05T03:04:43.030Z,47.90
2023-05-05T03:07:15.955Z,44.95
2023-05-05T03:10:08.822Z,49.35
2023-05-05T03:12:46.991Z,55.05
2023-05-05T03:15:26.648Z,56.65
2023-05-05T03:17:54.807Z,77.47
2023-05-05T03:20:23.232Z,87.10
2023-05-05T03:22:52.072Z,79.35
2023-05-05T03:25:19.668Z,72.95
2023-05-05T03:27:48.017Z,80.07
2023-05-05T03:30:20.455Z,85.38
2023-05-05T03:32:51.095Z,84.22
2023-05-05T03:35:18.750Z,67.72
2023-05-05T03:37:46.135Z,77.95
2023-05-05T03:40:16.485Z,75.07
2023-05-05T03:42:43.843Z,78.28
2023-05-05T03:45:11.559Z,79.25
2023-05-05T03:47:39.976Z,76.45
2023-05-05T03:50:09.024Z,72.57
2023-05-05T03:52:36.723Z,72.32
2023-05-05T03:55:05.237Z,72.45
2023-05-05T03:57:34.276Z,67.43
2023-05-05T04:00:02.018Z,62.13
2023-05-05T04:02:30.477Z,68.45
2023-05-05T04:04:58.236Z,69.35
2023-05-05T04:07:25.869Z,71.30
2023-05-05T04:09:53.699Z,72.43
2023-05-05T04:12:21.055Z,76.25
2023-05-05T04:14:48.635Z,84.68
2023-05-05T04:17:16.422Z,83.15
2023-05-05T04:19:44.653Z,91.05
2023-05-05T04:22:11.897Z,90.95
2023-05-05T04:24:39.737Z,103.15
2023-05-05T04:27:07.237Z,94.28
2023-05-05T04:29:35.701Z,97.38
2023-05-05T04:32:03.369Z,89.25
2023-05-05T04:34:31.217Z,84.10
2023-05-05T04:36:58.599Z,87.10
2023-05-05T04:39:26.456Z,91.65
2023-05-05T04:41:54.064Z,82.78
2023-05-05T04:44:21.737Z,76.50
2023-05-05T04:46:49.290Z,66.88
2023-05-05T04:49:17.022Z,64.65
2023-05-05T04:51:44.866Z,65.32
2023-05-05T04:54:12.566Z,64.38
2023-05-05T04:56:39.842Z,68.03
2023-05-05T04:59:07.838Z,70.28
2023-05-05T05:01:37.730Z,93.88
2023-05-05T05:04:06.116Z,64.55
2023-05-05T05:06:33.599Z,60.05
2023-05-05T05:09:01.071Z,53.83
2023-05-05T05:11:29.324Z,58.60
2023-05-05T05:13:57.026Z,47.72
2023-05-05T05:16:25.458Z,56.63
2023-05-05T05:18:53.466Z,57.45
2023-05-05T05:21:21.269Z,57.25
2023-05-05T05:23:49.275Z,57.88
2023-05-05T05:26:16.880Z,53.28
2023-05-05T05:28:44.890Z,56.70
2023-05-05T05:31:12.671Z,59.47
2023-05-05T05:33:40.332Z,59.70
2023-05-05T05:36:08.170Z,53.40
2023-05-05T05:38:36.535Z,67.20
2023-05-05T05:41:06.865Z,48.90
2023-05-05T05:43:36.033Z,49.17
2023-05-05T05:46:05.031Z,54.20
2023-05-05T05:48:34.236Z,52.78
2023-05-05T05:51:02.660Z,45.55
2023-05-05T05:53:30.439Z,52.38
2023-05-05T05:55:57.772Z,45.58
2023-05-05T05:58:25.637Z,47.35
2023-05-05T06:00:53.124Z,38.83
2023-05-05T06:03:21.239Z,37.72
2023-05-05T06:05:48.542Z,39.53
2023-05-05T06:08:16.490Z,38.17
2023-05-05T06:10:48.510Z,39.42
2023-05-05T06:13:19.617Z,35.80
2023-05-05T06:15:50.102Z,32.22
2023-05-05T06:18:18.685Z,21.20
2023-05-05T06:20:49.549Z,23.50
2023-05-05T06:23:18.607Z,35.95
2023-05-05T06:25:51.800Z,25.13
2023-05-05T06:28:19.546Z,23.67
2023-05-05T06:30:46.780Z,19.30
2023-05-05T06:33:14.461Z,18.38
2023-05-05T06:35:41.698Z,27.15
2023-05-05T06:38:09.947Z,28.40
2023-05-05T06:40:37.058Z,25.17
2023-05-05T06:43:04.861Z,22.13
2023-05-05T06:45:36.877Z,15.77
2023-05-05T06:48:04.764Z,27.80
2023-05-05T06:50:32.262Z,18.63
2023-05-05T06:52:59.861Z,26.40
2023-05-05T06:55:27.403Z,25.25
2023-05-05T06:57:55.264Z,23.02
2023-05-05T07:00:23.260Z,35.42
2023-05-05T07:02:50.793Z,38.65
2023-05-05T07:05:18.609Z,22.80
2023-05-05T07:07:56.666Z,28.92
2023-05-05T08:00:13.715Z,9.90
2023-05-05T08:02:41.861Z,8.63
2023-05-05T08:05:09.812Z,12.18
2023-05-05T08:07:41.671Z,13.60
2023-05-05T08:10:11.059Z,7.97
2023-05-05T08:12:39.103Z,7.45
2023-05-05T08:15:07.160Z,7.63
2023-05-05T08:17:49.504Z,10.90
2023-05-05T08:20:21.638Z,9.55
2023-05-05T08:22:49.916Z,11.63
2023-05-05T08:25:17.131Z,8.73
2023-05-05T08:27:45.142Z,8.02
2023-05-05T08:30:12.614Z,9.95
2023-05-05T08:32:40.621Z,11.93
2023-05-05T08:35:08.692Z,8.77
2023-05-05T08:37:36.653Z,7.43
2023-05-05T08:40:04.740Z,8.02
2023-05-05T08:42:37.073Z,7.50
2023-05-05T08:45:10.663Z,8.65
2023-05-05T08:47:42.468Z,8.65
2023-05-05T08:50:11.662Z,8.93
2023-05-05T08:52:44.125Z,6.95
2023-05-05T08:55:18.153Z,6.25
2023-05-05T08:57:55.167Z,4.57
2023-05-05T09:00:23.386Z,5.95
2023-05-05T09:02:51.389Z,6.45
2023-05-05T09:05:18.908Z,5.68
2023-05-05T09:07:47.616Z,5.10
2023-05-05T09:10:15.707Z,5.70
2023-05-05T09:12:43.829Z,3.55
2023-05-05T09:15:15.196Z,9.18
2023-05-05T09:17:43.841Z,6.05
2023-05-05T09:20:13.430Z,7.15
2023-05-05T09:22:46.958Z,6.40
2023-05-05T09:25:16.907Z,2.50
2023-05-05T09:27:49.417Z,5.35
2023-05-05T09:30:23.528Z,4.47
2023-05-05T09:32:54.159Z,4.72
2023-05-05T09:35:23.386Z,4.60
2023-05-05T09:37:51.817Z,6.50
2023-05-05T09:40:20.820Z,6.47
2023-05-05T09:42:48.966Z,3.42
2023-05-05T09:45:19.526Z,5.03
2023-05-05T09:47:49.477Z,3.05
2023-05-05T09:50:20.761Z,3.92
2023-05-05T09:53:02.319Z,6.13
2023-05-05T09:55:34.296Z,6.88
2023-05-05T09:58:20.399Z,5.45
2023-05-05T10:00:48.603Z,3.60
2023-05-05T10:03:17.966Z,11.25
2023-05-05T10:05:54.960Z,3.05
2023-05-05T10:08:24.850Z,5.40
2023-05-05T10:10:55.281Z,5.97
2023-05-05T10:13:25.181Z,5.32
2023-05-05T10:15:54.364Z,6.93
2023-05-05T10:18:27.185Z,14.07
2023-05-05T10:21:00.057Z,4.15
2023-05-05T10:23:50.968Z,7.53
2023-05-05T10:26:20.290Z,3.08
2023-05-05T10:28:51.853Z,3.42
2023-05-05T10:31:41.931Z,1.90
2023-05-05T10:34:11.362Z,3.67
2023-05-05T10:36:39.602Z,1.67
2023-05-05T10:39:09.580Z,1.83
2023-05-05T10:41:38.038Z,1.25
2023-05-05T10:44:06.946Z,1.02
2023-05-05T10:46:34.226Z,0.90
2023-05-05T10:49:19.026Z,1.40
2023-05-05T10:51:54.568Z,1.75
2023-05-05T10:57:05.036Z,2.35
2023-05-05T10:59:39.052Z,2.40
2023-05-05T11:02:28.433Z,2.55
2023-05-05T11:05:21.759Z,7.90
2023-05-05T11:07:51.709Z,3.40
2023-05-05T11:10:21.284Z,4.55
2023-05-05T11:13:03.400Z,2.35
2023-05-05T11:15:30.899Z,1.45
2023-05-05T11:18:05.699Z,2.20
2023-05-05T11:20:37.725Z,4.03
2023-05-05T11:23:08.174Z,2.50
2023-05-05T11:25:41.575Z,2.40
2023-05-05T11:28:12.830Z,2.38
2023-05-05T11:30:56.137Z,2.38
2023-05-05T11:33:37.393Z,5.28
2023-05-05T11:36:18.833Z,2.55
2023-05-05T11:39:27.688Z,1.80
2023-05-05T11:41:58.233Z,3.97
2023-05-05T11:44:33.647Z,1.58
2023-05-05T11:47:04.526Z,4.97
2023-05-05T11:49:36.603Z,2.20
2023-05-05T11:52:12.601Z,3.97
2023-05-05T11:54:51.602Z,1.75
2023-05-05T11:57:21.914Z,4.13
2023-05-05T11:59:51.259Z,2.17
2023-05-05T12:02:20.128Z,1.45
2023-05-05T12:04:48.150Z,4.50
2023-05-05T12:07:17.197Z,1.33
2023-05-05T12:09:45.993Z,1.83
2023-05-05T12:12:14.682Z,2.40
2023-05-05T12:14:52.098Z,1.58
2023-05-05T12:17:21.637Z,2.05
2023-05-05T12:19:53.004Z,2.83
2023-05-05T12:22:22.837Z,4.22
2023-05-05T12:24:55.096Z,1.20
2023-05-05T12:27:23.362Z,1.45
2023-05-05T12:29:51.712Z,1.92
2023-05-05T12:32:27.965Z,2.38
2023-05-05T12:34:57.740Z,1.50
2023-05-05T12:37:27.709Z,1.85
2023-05-05T12:39:57.792Z,4.00
2023-05-05T12:42:25.515Z,2.38
2023-05-05T12:44:53.161Z,2.13
2023-05-05T12:47:32.262Z,2.67
2023-05-05T12:50:00.808Z,7.40
2023-05-05T12:52:44.954Z,2.40
2023-05-05T12:55:13.525Z,6.13
2023-05-05T12:58:01.625Z,3.63
2023-05-05T13:00:29.497Z,3.05
2023-05-05T13:02:58.241Z,4.13
2023-05-05T13:05:33.516Z,2.92
2023-05-05T13:08:02.256Z,3.95
2023-05-05T13:10:32.617Z,2.55
2023-05-05T13:13:00.639Z,1.88
2023-05-05T13:15:30.804Z,2.53
2023-05-05T13:18:01.463Z,4.03
2023-05-05T13:20:28.970Z,3.47
2023-05-05T13:22:57.461Z,2.45
2023-05-05T13:25:24.849Z,4.13
2023-05-05T13:27:52.524Z,2.08
2023-05-05T13:30:20.933Z,2.00
2023-05-05T13:32:48.514Z,7.15
2023-05-05T13:35:16.699Z,2.63
2023-05-05T13:37:46.260Z,5.15
2023-05-05T13:40:14.286Z,1.88
2023-05-05T13:42:42.792Z,1.90
2023-05-05T13:45:11.045Z,3.15
2023-05-05T13:47:38.766Z,8.00
2023-05-05T13:50:07.488Z,1.92
2023-05-05T13:52:35.026Z,3.83
2023-05-05T13:55:02.952Z,2.30
2023-05-05T13:57:30.553Z,2.53
2023-05-05T13:59:57.682Z,2.83
2023-05-05T14:02:25.349Z,3.38
2023-05-05T14:04:52.784Z,2.60
2023-05-05T14:07:20.440Z,6.90
2023-05-05T14:09:47.771Z,4.13
2023-05-05T14:12:17.350Z,2.45
2023-05-05T14:14:45.032Z,6.85
2023-05-05T14:17:12.997Z,3.33
2023-05-05T14:19:41.115Z,5.82
2023-05-05T14:22:08.586Z,3.08
2023-05-05T14:24:36.386Z,3.35
2023-05-05T14:27:04.916Z,2.40
2023-05-05T14:29:32.811Z,3.85
2023-05-05T14:32:00.699Z,4.95
2023-05-05T14:34:28.280Z,2.95
2023-05-05T14:36:55.574Z,3.90
2023-05-05T14:39:23.785Z,3.38
2023-05-05T14:41:51.287Z,1.70
2023-05-05T14:44:19.034Z,2.58
2023-05-05T14:46:46.858Z,2.40
2023-05-05T14:49:16.126Z,4.28
2023-05-05T14:51:44.187Z,2.67
2023-05-05T14:54:24.300Z,3.78
2023-05-05T14:56:55.656Z,3.88
2023-05-05T14:59:23.314Z,6.05
2023-05-05T15:01:51.098Z,6.35
2023-05-05T15:04:18.779Z,6.15
2023-05-05T15:06:46.229Z,3.47
2023-05-05T15:09:13.834Z,4.18
2023-05-05T15:11:45.506Z,3.25
2023-05-05T15:14:13.070Z,6.75
2023-05-05T15:16:40.424Z,4.45
2023-05-05T15:19:08.034Z,4.10
2023-05-05T15:21:35.215Z,4.90
2023-05-05T15:24:02.882Z,2.45
2023-05-05T15:26:30.096Z,9.23
2023-05-05T15:28:57.633Z,9.55
2023-05-05T15:31:24.930Z,5.75
2023-05-05T15:33:52.530Z,5.70
2023-05-05T15:36:22.810Z,4.05
2023-05-05T15:38:50.383Z,3.83
2023-05-05T15:41:17.676Z,7.82
2023-05-05T15:43:45.376Z,5.13
2023-05-05T15:46:12.617Z,4.13
2023-05-05T15:48:40.267Z,2.55
2023-05-05T15:51:07.457Z,6.25
2023-05-05T15:53:35.163Z,7.05
2023-05-05T15:56:02.840Z,7.18
2023-05-05T15:58:30.420Z,3.70
2023-05-05T16:00:57.665Z,7.75
2023-05-05T16:03:25.294Z,18.30
2023-05-05T16:05:52.685Z,4.63
2023-05-05T16:08:20.209Z,21.60
2023-05-05T16:10:47.416Z,5.80
2023-05-05T16:13:15.333Z,5.40
2023-05-05T16:15:42.727Z,7.70
2023-05-05T16:18:10.441Z,5.68
2023-05-05T16:20:37.824Z,9.35
2023-05-05T16:23:05.675Z,11.95
2023-05-05T16:25:32.996Z,6.53
2023-05-05T16:28:01.825Z,6.43
2023-05-05T16:30:29.547Z,13.20
2023-05-05T16:32:57.075Z,8.20
2023-05-05T16:35:24.313Z,5.13
2023-05-05T16:37:52.723Z,5.93
2023-05-05T16:40:20.075Z,5.10
2023-05-05T16:42:47.953Z,3.78
2023-05-05T16:45:15.161Z,5.68
2023-05-05T16:47:42.738Z,6.07
2023-05-05T16:50:10.259Z,5.45
2023-05-05T16:52:37.904Z,6.85
2023-05-05T16:55:05.978Z,7.63
2023-05-05T16:57:33.784Z,12.15
2023-05-05T17:00:01.046Z,13.82
2023-05-05T17:02:28.627Z,16.25
2023-05-05T17:04:55.910Z,18.10
2023-05-05T17:07:23.561Z,13.43
2023-05-05T17:09:51.245Z,14.15
2023-05-05T17:12:18.887Z,17.52
2023-05-05T17:21:25.137Z,20.58
2023-05-05T17:23:52.664Z,10.23
2023-05-05T17:26:19.908Z,9.02
2023-05-05T17:28:47.438Z,9.98
2023-05-05T17:31:14.847Z,12.93
2023-05-05T17:33:42.519Z,7.80
2023-05-05T17:36:10.148Z,6.22
2023-05-05T17:38:37.863Z,6.15
2023-05-05T17:41:05.110Z,8.68
2023-05-05T17:43:32.677Z,8.35
2023-05-05T17:45:59.993Z,9.02
2023-05-05T17:48:27.918Z,5.68
2023-05-05T17:50:55.338Z,7.78
2023-05-05T17:53:23.678Z,18.55
2023-05-05T17:55:50.959Z,6.30
2023-05-05T17:58:18.587Z,11.05
2023-05-05T18:00:46.662Z,10.45
2023-05-05T18:03:14.784Z,12.75
2023-05-05T18:05:42.289Z,10.20
2023-05-05T18:08:09.905Z,13.90
2023-05-05T18:10:37.376Z,22.75
2023-05-05T18:13:05.129Z,24.40
2023-05-05T18:15:32.458Z,26.45
2023-05-05T18:18:00.491Z,37.65
2023-05-05T18:20:27.785Z,53.00
2023-05-05T18:22:55.712Z,31.88
2023-05-05T18:25:23.691Z,39.95
2023-05-05T18:27:51.376Z,32.65
2023-05-05T18:30:18.712Z,26.02
2023-05-05T18:32:46.490Z,23.80
2023-05-05T18:35:14.656Z,18.42
2023-05-05T18:37:42.833Z,22.30
2023-05-05T18:40:10.849Z,19.75
2023-05-05T18:42:38.593Z,28.95
2023-05-05T18:45:07.559Z,45.78
2023-05-05T18:47:39.166Z,35.92
2023-05-05T18:50:08.648Z,26.63
2023-05-05T18:52:38.098Z,21.25
2023-05-05T18:55:05.813Z,24.38
2023-05-05T18:57:33.371Z,24.85
2023-05-05T19:00:01.258Z,53.95
2023-05-05T19:02:28.963Z,50.20
2023-05-05T19:04:56.423Z,37.30
2023-05-05T19:07:34.409Z,39.50
2023-05-05T19:10:04.947Z,52.78
2023-05-05T19:12:33.813Z,67.80
2023-05-05T19:15:01.475Z,88.10
2023-05-05T19:17:29.223Z,75.25
2023-05-05T19:19:57.984Z,73.10
2023-05-05T19:22:25.830Z,88.13
2023-05-05T19:24:53.109Z,96.35
2023-05-05T19:27:20.685Z,105.40
2023-05-05T19:29:52.335Z,97.32
2023-05-05T19:32:21.245Z,94.07
2023-05-05T19:34:48.977Z,84.90
2023-05-05T19:37:16.718Z,86.43
2023-05-05T19:39:45.880Z,70.70
2023-05-05T19:42:13.963Z,71.15
2023-05-05T19:44:41.184Z,72.05
2023-05-05T19:47:10.880Z,58.85
2023-05-05T19:49:38.458Z,57.50
2023-05-05T19:52:06.173Z,59.50
2023-05-05T19:54:33.477Z,59.10
2023-05-05T19:57:01.062Z,56.72
2023-05-05T19:59:28.345Z,54.45
2023-05-05T20:01:55.986Z,33.63
2023-05-05T20:04:23.353Z,28.30
2023-05-05T20:06:51.189Z,18.95
2023-05-05T20:09:18.820Z,13.60
2023-05-05T20:11:49.250Z,23.05
2023-05-05T20:14:16.524Z,15.93
2023-05-05T20:16:46.660Z,17.85
2023-05-05T20:19:14.090Z,21.73
2023-05-05T20:21:41.866Z,38.45
2023-05-05T20:24:10.631Z,34.75
2023-05-05T20:26:41.574Z,37.95
2023-05-05T20:29:08.820Z,39.70
2023-05-05T20:31:36.551Z,37.20
2023-05-05T20:34:04.027Z,39.67
2023-05-05T20:36:32.070Z,39.05
2023-05-05T20:38:59.503Z,39.08
2023-05-05T20:41:27.177Z,37.42
2023-05-05T20:43:54.449Z,36.25
2023-05-05T20:46:22.000Z,51.75
2023-05-05T20:48:49.305Z,42.83
2023-05-05T20:51:17.204Z,33.78
2023-05-05T20:53:44.403Z,35.00
2023-05-05T20:56:11.951Z,46.38
2023-05-05T20:58:39.085Z,57.20
2023-05-05T21:01:06.789Z,74.88
2023-05-05T21:03:34.237Z,67.93
2023-05-05T21:06:02.132Z,63.35
2023-05-05T21:08:30.268Z,50.72
2023-05-05T21:10:57.802Z,48.95
2023-05-05T21:13:25.266Z,43.88
2023-05-05T21:15:52.880Z,49.38
2023-05-05T21:18:20.350Z,47.67
2023-05-05T21:20:47.908Z,38.38
2023-05-05T21:23:15.120Z,44.75
2023-05-05T21:25:42.812Z,43.38
2023-05-05T21:28:10.126Z,47.22
2023-05-05T21:30:38.320Z,42.08
2023-05-05T21:33:05.573Z,47.97
2023-05-05T21:35:33.248Z,37.88
2023-05-05T21:38:00.756Z,44.45
2023-05-05T21:40:28.366Z,46.65
2023-05-05T21:42:55.748Z,50.05
2023-05-05T21:45:23.741Z,49.85
2023-05-05T21:47:51.106Z,50.35
2023-05-05T21:50:18.705Z,47.28
2023-05-05T21:52:45.936Z,56.00
2023-05-05T21:55:13.528Z,52.55
2023-05-05T21:57:40.726Z,53.88
2023-05-05T22:00:09.324Z,58.97
2023-05-05T22:02:45.665Z,57.30
2023-05-05T22:05:13.489Z,68.53
2023-05-05T22:07:40.909Z,59.33
2023-05-05T22:10:09.347Z,70.53
2023-05-05T22:12:39.341Z,61.70
2023-05-05T22:15:08.670Z,51.88
2023-05-05T22:17:36.448Z,61.25
2023-05-05T22:20:09.390Z,57.20
2023-05-05T22:22:36.864Z,52.83
2023-05-05T22:25:05.314Z,51.35
2023-05-05T22:27:32.556Z,55.67
2023-05-05T22:30:00.221Z,51.40
2023-05-05T22:32:27.471Z,60.38
2023-05-05T22:34:55.107Z,55.05
2023-05-05T22:37:22.769Z,53.20
2023-05-05T22:39:50.448Z,47.97
2023-05-05T22:42:17.624Z,45.08
2023-05-05T22:44:45.271Z,54.83
2023-05-05T22:47:14.977Z,51.70
2023-05-05T22:49:42.735Z,43.90
2023-05-05T22:52:09.960Z,47.58
2023-05-05T22:54:37.424Z,42.42
2023-05-05T22:57:04.606Z,46.20
2023-05-05T22:59:32.268Z,53.70
2023-05-05T23:01:59.481Z,40.33
2023-05-05T23:04:27.000Z,46.70
2023-05-05T23:06:55.283Z,43.00
2023-05-05T23:09:24.344Z,34.60
2023-05-05T23:11:51.450Z,31.92
2023-05-05T23:14:19.735Z,33.42
2023-05-05T23:16:47.026Z,29.48
2023-05-05T23:19:17.812Z,27.63
2023-05-05T23:21:52.612Z,36.85
2023-05-05T23:26:49.172Z,26.65
2023-05-05T23:29:16.676Z,31.85
2023-05-05T23:31:43.877Z,29.42
2023-05-05T23:34:11.641Z,33.30
2023-05-05T23:36:38.780Z,30.88
2023-05-05T23:39:06.538Z,29.45
2023-05-05T23:41:33.837Z,38.63
2023-05-05T23:44:01.407Z,28.55
2023-05-05T23:46:29.406Z,27.60
2023-05-05T23:49:00.164Z,26.60
2023-05-05T23:51:27.850Z,29.00
2023-05-05T23:53:57.341Z,33.75
2023-05-05T23:56:24.780Z,26.60
2023-05-05T23:58:53.580Z,23.83
